Terminal Aerodrome Forecast
Issued by NWS Springfield, MO

Home | Current Version | Previous Version | Text Only | Print | Product List | Glossary On
Versions: 1 2 3 4 5 6 7 8 9 10 11 12 13 14 15 16 17 18 19 20 21
000
FTUS43 KSGF 160500
TAFSGF
TAF
KSGF 160520Z 1606/1706 27015G25KT P6SM OVC025
     FM160800 30012KT P6SM OVC015
     FM161600 31012G18KT P6SM OVC025
     FM162000 31010KT P6SM SCT250
     FM170300 VRB04KT P6SM SCT250=

USA.gov is the U.S. government's official web portal to all federal, state and local government web resources and services.